SAS90G EKCH-ENTO
Flight info
| Callsign | SAS90G |
|---|---|
| Flight time | 0h 44m |
| Altitude | 36000 |
| Route | GOLGA T506 LAPMA DCT ARTOR DCT ESOSI |
| Aircraft | A319/M-SDE3FGHIRWY/LB1 |
Departure
| Time | 2026-05-08 07:05 |
|---|---|
| Airport | Copenhagen Kastrup Airport (EKCH) |
Arrival
| Time | 2026-05-08 07:49 |
|---|---|
| Airport | Sandefjord Airport, Torp (ENTO) |
| Time | Latitude | Longitude | Altitude | Speed | Heading |
|---|---|---|---|---|---|
| 2026-05-08 06:43 | 55.62756 | 12.64477 | 24 ft | 0 kts | 101° |
| 2026-05-08 06:53 | 55.62760 | 12.64447 | 24 ft | 3 kts | 101° |
| 2026-05-08 06:54 | 55.62761 | 12.64414 | 26 ft | 3 kts | 73° |
| 2026-05-08 06:54 | 55.62753 | 12.64385 | 24 ft | 3 kts | 37° |
| 2026-05-08 06:54 | 55.62737 | 12.64368 | 28 ft | 3 kts | 28° |
| 2026-05-08 06:54 | 55.62720 | 12.64352 | 26 ft | 3 kts | 24° |
| 2026-05-08 06:55 | 55.62702 | 12.64339 | 26 ft | 3 kts | 22° |
| 2026-05-08 06:55 | 55.62685 | 12.64326 | 26 ft | 3 kts | 22° |
| 2026-05-08 06:55 | 55.62668 | 12.64313 | 26 ft | 3 kts | 22° |
| 2026-05-08 06:55 | 55.62650 | 12.64300 | 26 ft | 3 kts | 23° |
| 2026-05-08 06:56 | 55.62634 | 12.64285 | 29 ft | 3 kts | 32° |
| 2026-05-08 06:56 | 55.62618 | 12.64267 | 28 ft | 3 kts | 32° |
| 2026-05-08 06:56 | 55.62602 | 12.64250 | 26 ft | 3 kts | 32° |
| 2026-05-08 06:56 | 55.62586 | 12.64232 | 25 ft | 3 kts | 32° |
| 2026-05-08 06:57 | 55.62570 | 12.64215 | 26 ft | 3 kts | 32° |
| 2026-05-08 06:57 | 55.62554 | 12.64196 | 25 ft | 3 kts | 44° |
| 2026-05-08 06:57 | 55.62545 | 12.64168 | 26 ft | 3 kts | 97° |
| 2026-05-08 06:57 | 55.62550 | 12.64137 | 27 ft | 3 kts | 124° |
| 2026-05-08 06:58 | 55.62561 | 12.64109 | 26 ft | 3 kts | 123° |
| 2026-05-08 06:58 | 55.62571 | 12.64081 | 25 ft | 3 kts | 123° |
| 2026-05-08 06:58 | 55.62577 | 12.64066 | 27 ft | 0 kts | 124° |
| 2026-05-08 06:59 | 55.62577 | 12.64067 | 26 ft | 1 kts | 124° |
| 2026-05-08 06:59 | 55.62566 | 12.64094 | 25 ft | 5 kts | 124° |
| 2026-05-08 06:59 | 55.62541 | 12.64162 | 26 ft | 8 kts | 123° |
| 2026-05-08 07:00 | 55.62500 | 12.64270 | 25 ft | 12 kts | 123° |
| 2026-05-08 07:00 | 55.62439 | 12.64410 | 24 ft | 17 kts | 128° |
| 2026-05-08 07:00 | 55.62366 | 12.64598 | 25 ft | 20 kts | 123° |
| 2026-05-08 07:00 | 55.62291 | 12.64784 | 24 ft | 14 kts | 144° |
| 2026-05-08 07:01 | 55.62194 | 12.64753 | 26 ft | 16 kts | 212° |
| 2026-05-08 07:01 | 55.62092 | 12.64632 | 25 ft | 20 kts | 213° |
| 2026-05-08 07:01 | 55.61967 | 12.64505 | 26 ft | 21 kts | 195° |
| 2026-05-08 07:01 | 55.61814 | 12.64537 | 25 ft | 24 kts | 169° |
| 2026-05-08 07:02 | 55.61658 | 12.64542 | 24 ft | 21 kts | 209° |
| 2026-05-08 07:02 | 55.61525 | 12.64390 | 24 ft | 24 kts | 213° |
| 2026-05-08 07:02 | 55.61373 | 12.64217 | 24 ft | 28 kts | 213° |
| 2026-05-08 07:02 | 55.61203 | 12.64020 | 26 ft | 29 kts | 213° |
| 2026-05-08 07:03 | 55.61030 | 12.63822 | 24 ft | 28 kts | 213° |
| 2026-05-08 07:03 | 55.60869 | 12.63637 | 26 ft | 23 kts | 213° |
| 2026-05-08 07:03 | 55.60754 | 12.63662 | 24 ft | 20 kts | 130° |
| 2026-05-08 07:03 | 55.60678 | 12.63859 | 26 ft | 16 kts | 80° |
| 2026-05-08 07:04 | 55.60779 | 12.64026 | 26 ft | 33 kts | 41° |
| 2026-05-08 07:04 | 55.61130 | 12.64572 | 23 ft | 99 kts | 41° |
| 2026-05-08 07:04 | 55.61795 | 12.65603 | 26 ft | 153 kts | 41° |
| 2026-05-08 07:04 | 55.62642 | 12.66900 | 519 ft | 161 kts | 45° |
| 2026-05-08 07:05 | 55.63483 | 12.68199 | 1289 ft | 161 kts | 45° |
| 2026-05-08 07:05 | 55.64330 | 12.69507 | 1927 ft | 166 kts | 45° |
| 2026-05-08 07:05 | 55.65289 | 12.70866 | 2243 ft | 191 kts | 31° |
| 2026-05-08 07:05 | 55.66698 | 12.71105 | 2520 ft | 226 kts | 349° |
| 2026-05-08 07:06 | 55.68306 | 12.70338 | 3037 ft | 251 kts | 347° |
| 2026-05-08 07:06 | 55.70053 | 12.69695 | 3918 ft | 260 kts | 355° |
| 2026-05-08 07:06 | 55.71859 | 12.69418 | 5007 ft | 261 kts | 359° |
| 2026-05-08 07:06 | 55.73687 | 12.69278 | 6040 ft | 266 kts | 0° |
| 2026-05-08 07:07 | 55.75554 | 12.69165 | 7011 ft | 271 kts | 0° |
| 2026-05-08 07:07 | 55.77431 | 12.68527 | 7901 ft | 282 kts | 340° |
| 2026-05-08 07:07 | 55.79210 | 12.66965 | 8831 ft | 287 kts | 334° |
| 2026-05-08 07:07 | 55.81000 | 12.65321 | 9765 ft | 293 kts | 334° |
| 2026-05-08 07:08 | 55.82826 | 12.63632 | 10561 ft | 302 kts | 334° |
| 2026-05-08 07:08 | 55.84764 | 12.61839 | 10876 ft | 326 kts | 334° |
| 2026-05-08 07:08 | 55.86846 | 12.59915 | 11240 ft | 345 kts | 334° |
| 2026-05-08 07:08 | 55.89002 | 12.57925 | 11938 ft | 351 kts | 334° |
| 2026-05-08 07:09 | 55.91186 | 12.55912 | 12708 ft | 355 kts | 333° |
| 2026-05-08 07:09 | 55.93368 | 12.53905 | 13462 ft | 360 kts | 333° |
| 2026-05-08 07:09 | 55.95603 | 12.51845 | 14226 ft | 363 kts | 333° |
| 2026-05-08 07:09 | 55.97852 | 12.49763 | 14914 ft | 366 kts | 333° |
| 2026-05-08 07:10 | 56.00128 | 12.47650 | 15582 ft | 370 kts | 333° |
| 2026-05-08 07:10 | 56.02423 | 12.45514 | 16264 ft | 374 kts | 332° |
| 2026-05-08 07:10 | 56.04744 | 12.43351 | 16936 ft | 378 kts | 332° |
| 2026-05-08 07:10 | 56.07087 | 12.41167 | 17654 ft | 380 kts | 332° |
| 2026-05-08 07:11 | 56.09448 | 12.38966 | 18345 ft | 384 kts | 332° |
| 2026-05-08 07:11 | 56.11823 | 12.36745 | 18988 ft | 386 kts | 332° |
| 2026-05-08 07:11 | 56.14214 | 12.34504 | 19576 ft | 390 kts | 332° |
| 2026-05-08 07:11 | 56.16628 | 12.32240 | 20184 ft | 393 kts | 332° |
| 2026-05-08 07:12 | 56.19064 | 12.29955 | 20757 ft | 397 kts | 332° |
| 2026-05-08 07:12 | 56.21501 | 12.27666 | 21352 ft | 400 kts | 332° |
| 2026-05-08 07:12 | 56.23974 | 12.25341 | 21939 ft | 403 kts | 332° |
| 2026-05-08 07:12 | 56.26468 | 12.22998 | 22493 ft | 406 kts | 332° |
| 2026-05-08 07:13 | 56.28982 | 12.20635 | 23028 ft | 409 kts | 332° |
| 2026-05-08 07:13 | 56.31513 | 12.18246 | 23541 ft | 412 kts | 332° |
| 2026-05-08 07:13 | 56.34062 | 12.15830 | 24011 ft | 416 kts | 332° |
| 2026-05-08 07:13 | 56.36630 | 12.13394 | 24421 ft | 419 kts | 332° |
| 2026-05-08 07:14 | 56.39218 | 12.10936 | 24845 ft | 422 kts | 332° |
| 2026-05-08 07:14 | 56.41826 | 12.08452 | 25269 ft | 425 kts | 332° |
| 2026-05-08 07:14 | 56.44447 | 12.05953 | 25706 ft | 427 kts | 332° |
| 2026-05-08 07:14 | 56.47084 | 12.03439 | 26106 ft | 430 kts | 332° |
| 2026-05-08 07:15 | 56.49742 | 12.00903 | 26537 ft | 433 kts | 332° |
| 2026-05-08 07:15 | 56.52411 | 11.98349 | 26939 ft | 436 kts | 332° |
| 2026-05-08 07:15 | 56.55101 | 11.95771 | 27355 ft | 439 kts | 332° |
| 2026-05-08 07:15 | 56.57808 | 11.93173 | 27759 ft | 441 kts | 332° |
| 2026-05-08 07:16 | 56.60529 | 11.90560 | 28160 ft | 444 kts | 332° |
| 2026-05-08 07:16 | 56.63268 | 11.87927 | 28556 ft | 447 kts | 332° |
| 2026-05-08 07:16 | 56.66019 | 11.85277 | 28948 ft | 449 kts | 332° |
| 2026-05-08 07:16 | 56.68788 | 11.82600 | 29321 ft | 452 kts | 332° |
| 2026-05-08 07:17 | 56.71567 | 11.79903 | 29698 ft | 454 kts | 332° |
| 2026-05-08 07:17 | 56.74368 | 11.77182 | 30063 ft | 457 kts | 332° |
| 2026-05-08 07:17 | 56.77181 | 11.74449 | 30404 ft | 459 kts | 332° |
| 2026-05-08 07:17 | 56.80007 | 11.71699 | 30687 ft | 462 kts | 332° |
| 2026-05-08 07:18 | 56.82816 | 11.68959 | 30953 ft | 465 kts | 332° |
| 2026-05-08 07:18 | 56.85675 | 11.66168 | 31244 ft | 467 kts | 332° |
| 2026-05-08 07:18 | 56.88538 | 11.63368 | 31635 ft | 466 kts | 332° |
| 2026-05-08 07:18 | 56.91394 | 11.60572 | 32038 ft | 466 kts | 332° |
| 2026-05-08 07:19 | 56.94259 | 11.57760 | 32430 ft | 466 kts | 332° |
| 2026-05-08 07:19 | 56.97117 | 11.54946 | 32823 ft | 466 kts | 332° |
| 2026-05-08 07:19 | 56.99971 | 11.52134 | 33226 ft | 466 kts | 332° |
| 2026-05-08 07:19 | 57.02825 | 11.49319 | 33612 ft | 466 kts | 332° |
| 2026-05-08 07:20 | 57.05680 | 11.46503 | 34014 ft | 466 kts | 332° |
| 2026-05-08 07:20 | 57.08534 | 11.43679 | 34398 ft | 465 kts | 332° |
| 2026-05-08 07:20 | 57.11382 | 11.40854 | 34746 ft | 465 kts | 331° |
| 2026-05-08 07:20 | 57.14229 | 11.38020 | 35111 ft | 464 kts | 331° |
| 2026-05-08 07:21 | 57.17066 | 11.35195 | 35461 ft | 464 kts | 331° |
| 2026-05-08 07:21 | 57.19906 | 11.32369 | 35822 ft | 463 kts | 331° |
| 2026-05-08 07:21 | 57.22737 | 11.29548 | 36154 ft | 463 kts | 331° |
| 2026-05-08 07:21 | 57.25569 | 11.26719 | 36247 ft | 462 kts | 330° |
| 2026-05-08 07:22 | 57.31202 | 11.21067 | 36265 ft | 460 kts | 330° |
| 2026-05-08 07:22 | 57.36819 | 11.15407 | 36270 ft | 459 kts | 330° |
| 2026-05-08 07:23 | 57.42435 | 11.09735 | 36267 ft | 459 kts | 330° |
| 2026-05-08 07:23 | 57.48047 | 11.04047 | 36265 ft | 459 kts | 330° |
| 2026-05-08 07:24 | 57.53615 | 10.98391 | 36273 ft | 458 kts | 330° |
| 2026-05-08 07:24 | 57.59209 | 10.92671 | 36266 ft | 458 kts | 330° |
| 2026-05-08 07:25 | 57.64807 | 10.86932 | 36271 ft | 459 kts | 330° |
| 2026-05-08 07:26 | 57.73192 | 10.78297 | 36270 ft | 459 kts | 330° |
| 2026-05-08 07:26 | 57.78786 | 10.72514 | 36264 ft | 459 kts | 329° |
| 2026-05-08 07:27 | 57.84389 | 10.66709 | 35702 ft | 461 kts | 329° |
| 2026-05-08 07:27 | 57.87153 | 10.63836 | 35213 ft | 460 kts | 329° |
| 2026-05-08 07:27 | 57.89954 | 10.60919 | 34729 ft | 461 kts | 329° |
| 2026-05-08 07:27 | 57.92762 | 10.57987 | 34239 ft | 462 kts | 329° |
| 2026-05-08 07:28 | 57.95608 | 10.55013 | 33659 ft | 462 kts | 330° |
| 2026-05-08 07:28 | 57.98385 | 10.52106 | 33066 ft | 463 kts | 330° |
| 2026-05-08 07:28 | 58.01196 | 10.49153 | 32479 ft | 463 kts | 330° |
| 2026-05-08 07:28 | 58.04011 | 10.46192 | 31919 ft | 463 kts | 329° |
| 2026-05-08 07:29 | 58.06829 | 10.43225 | 31366 ft | 463 kts | 329° |
| 2026-05-08 07:29 | 58.09651 | 10.40255 | 30811 ft | 463 kts | 329° |
| 2026-05-08 07:29 | 58.12454 | 10.37292 | 30249 ft | 460 kts | 329° |
| 2026-05-08 07:29 | 58.15230 | 10.34347 | 29620 ft | 456 kts | 329° |
| 2026-05-08 07:30 | 58.17983 | 10.31412 | 28998 ft | 452 kts | 329° |
| 2026-05-08 07:30 | 58.20710 | 10.28504 | 28388 ft | 448 kts | 329° |
| 2026-05-08 07:30 | 58.23413 | 10.25623 | 27794 ft | 444 kts | 329° |
| 2026-05-08 07:30 | 58.26093 | 10.22765 | 27213 ft | 440 kts | 329° |
| 2026-05-08 07:31 | 58.28790 | 10.20052 | 26634 ft | 437 kts | 335° |
| 2026-05-08 07:31 | 58.31660 | 10.18185 | 26074 ft | 435 kts | 346° |
| 2026-05-08 07:31 | 58.34606 | 10.17314 | 25538 ft | 433 kts | 356° |
| 2026-05-08 07:31 | 58.37610 | 10.17399 | 25000 ft | 430 kts | 6° |
| 2026-05-08 07:32 | 58.40546 | 10.18431 | 24470 ft | 428 kts | 14° |
| 2026-05-08 07:32 | 58.43418 | 10.19850 | 23953 ft | 426 kts | 15° |
| 2026-05-08 07:32 | 58.46276 | 10.21278 | 23359 ft | 423 kts | 15° |
| 2026-05-08 07:32 | 58.49107 | 10.22698 | 22753 ft | 419 kts | 15° |
| 2026-05-08 07:33 | 58.51914 | 10.24110 | 22160 ft | 415 kts | 15° |
| 2026-05-08 07:33 | 58.54694 | 10.25514 | 21578 ft | 412 kts | 15° |
| 2026-05-08 07:33 | 58.57454 | 10.26911 | 21006 ft | 408 kts | 15° |
| 2026-05-08 07:33 | 58.60190 | 10.28294 | 20445 ft | 405 kts | 15° |
| 2026-05-08 07:34 | 58.62906 | 10.29668 | 19903 ft | 402 kts | 14° |
| 2026-05-08 07:34 | 58.64730 | 10.30591 | 19537 ft | 400 kts | 14° |
| 2026-05-08 07:34 | 58.68270 | 10.32385 | 18836 ft | 395 kts | 15° |
| 2026-05-08 07:34 | 58.70060 | 10.33293 | 18467 ft | 392 kts | 15° |
| 2026-05-08 07:35 | 58.72653 | 10.34610 | 17868 ft | 389 kts | 14° |
| 2026-05-08 07:35 | 58.75255 | 10.35931 | 17279 ft | 384 kts | 14° |
| 2026-05-08 07:35 | 58.77827 | 10.37243 | 16691 ft | 380 kts | 14° |
| 2026-05-08 07:35 | 58.80370 | 10.38541 | 16121 ft | 376 kts | 14° |
| 2026-05-08 07:36 | 58.82889 | 10.39825 | 15563 ft | 372 kts | 14° |
| 2026-05-08 07:36 | 58.85386 | 10.41099 | 15014 ft | 369 kts | 14° |
| 2026-05-08 07:36 | 58.87859 | 10.42367 | 14473 ft | 367 kts | 14° |
| 2026-05-08 07:36 | 58.90317 | 10.43632 | 13930 ft | 364 kts | 14° |
| 2026-05-08 07:37 | 58.92760 | 10.44894 | 13331 ft | 362 kts | 14° |
| 2026-05-08 07:37 | 58.95198 | 10.46053 | 12744 ft | 359 kts | 9° |
| 2026-05-08 07:37 | 58.97671 | 10.46462 | 12168 ft | 356 kts | 359° |
| 2026-05-08 07:37 | 59.00144 | 10.46439 | 11602 ft | 353 kts | 359° |
| 2026-05-08 07:38 | 59.02594 | 10.46427 | 11045 ft | 351 kts | 359° |
| 2026-05-08 07:38 | 59.05027 | 10.46418 | 10499 ft | 349 kts | 359° |
| 2026-05-08 07:38 | 59.07423 | 10.46415 | 10288 ft | 336 kts | 359° |
| 2026-05-08 07:38 | 59.09705 | 10.46415 | 10235 ft | 321 kts | 359° |
| 2026-05-08 07:39 | 59.11902 | 10.46413 | 10104 ft | 310 kts | 359° |
| 2026-05-08 07:39 | 59.14008 | 10.46407 | 9852 ft | 305 kts | 359° |
| 2026-05-08 07:39 | 59.16118 | 10.46396 | 9499 ft | 302 kts | 359° |
| 2026-05-08 07:39 | 59.18213 | 10.46386 | 9133 ft | 300 kts | 359° |
| 2026-05-08 07:40 | 59.20288 | 10.46344 | 8807 ft | 297 kts | 358° |
| 2026-05-08 07:40 | 59.22347 | 10.46249 | 8471 ft | 295 kts | 357° |
| 2026-05-08 07:40 | 59.24390 | 10.46128 | 8124 ft | 293 kts | 357° |
| 2026-05-08 07:40 | 59.26421 | 10.46001 | 7725 ft | 291 kts | 356° |
| 2026-05-08 07:41 | 59.28447 | 10.45881 | 7216 ft | 292 kts | 357° |
| 2026-05-08 07:41 | 59.30478 | 10.45809 | 6796 ft | 292 kts | 357° |
| 2026-05-08 07:41 | 59.32500 | 10.45772 | 6402 ft | 288 kts | 358° |
| 2026-05-08 07:41 | 59.34487 | 10.45750 | 5999 ft | 284 kts | 358° |
| 2026-05-08 07:42 | 59.36451 | 10.45723 | 5601 ft | 280 kts | 356° |
| 2026-05-08 07:42 | 59.38302 | 10.44927 | 5216 ft | 270 kts | 330° |
| 2026-05-08 07:42 | 59.39745 | 10.42718 | 4779 ft | 261 kts | 305° |
| 2026-05-08 07:42 | 59.40555 | 10.39615 | 4333 ft | 253 kts | 281° |
| 2026-05-08 07:43 | 59.40692 | 10.36252 | 3988 ft | 244 kts | 264° |
| 2026-05-08 07:43 | 59.40669 | 10.32953 | 3717 ft | 238 kts | 265° |
| 2026-05-08 07:43 | 59.40602 | 10.29759 | 3447 ft | 229 kts | 255° |
| 2026-05-08 07:43 | 59.39920 | 10.27099 | 3193 ft | 214 kts | 224° |
| 2026-05-08 07:44 | 59.38711 | 10.25646 | 3029 ft | 204 kts | 195° |
| 2026-05-08 07:44 | 59.37344 | 10.25439 | 2998 ft | 191 kts | 179° |
| 2026-05-08 07:44 | 59.36063 | 10.25468 | 3005 ft | 178 kts | 180° |
| 2026-05-08 07:44 | 59.34845 | 10.25493 | 3030 ft | 173 kts | 180° |
| 2026-05-08 07:45 | 59.33648 | 10.25521 | 2992 ft | 172 kts | 180° |
| 2026-05-08 07:45 | 59.32461 | 10.25548 | 2827 ft | 170 kts | 179° |
| 2026-05-08 07:45 | 59.31279 | 10.25581 | 2563 ft | 169 kts | 179° |
| 2026-05-08 07:45 | 59.30094 | 10.25606 | 2363 ft | 171 kts | 179° |
| 2026-05-08 07:46 | 59.28921 | 10.25629 | 2164 ft | 164 kts | 179° |
| 2026-05-08 07:46 | 59.27794 | 10.25658 | 1897 ft | 160 kts | 179° |
| 2026-05-08 07:46 | 59.26705 | 10.25682 | 1646 ft | 155 kts | 179° |
| 2026-05-08 07:46 | 59.25631 | 10.25703 | 1437 ft | 154 kts | 179° |
| 2026-05-08 07:47 | 59.24610 | 10.25723 | 1268 ft | 137 kts | 178° |
| 2026-05-08 07:47 | 59.23699 | 10.25745 | 1063 ft | 129 kts | 178° |
| 2026-05-08 07:47 | 59.22814 | 10.25766 | 890 ft | 126 kts | 177° |
| 2026-05-08 07:47 | 59.21944 | 10.25782 | 719 ft | 123 kts | 177° |
| 2026-05-08 07:48 | 59.21096 | 10.25807 | 595 ft | 121 kts | 177° |
| 2026-05-08 07:48 | 59.20255 | 10.25819 | 429 ft | 121 kts | 176° |
| 2026-05-08 07:48 | 59.19416 | 10.25844 | 297 ft | 118 kts | 176° |
| 2026-05-08 07:48 | 59.18702 | 10.25864 | 285 ft | 82 kts | 180° |
| 2026-05-08 07:49 | 59.18319 | 10.25869 | 279 ft | 38 kts | 179° |
| 2026-05-08 07:49 | 59.18191 | 10.25735 | 279 ft | 17 kts | 231° |
| 2026-05-08 07:49 | 59.18137 | 10.25610 | 278 ft | 10 kts | 228° |
| 2026-05-08 07:49 | 59.18069 | 10.25527 | 277 ft | 12 kts | 199° |
| 2026-05-08 07:50 | 59.18008 | 10.25421 | 277 ft | 8 kts | 224° |
| 2026-05-08 07:50 | 59.17999 | 10.25404 | 277 ft | 0 kts | 224° |